sensor_id;sensor_type;location;lat;lon;timestamp;P1;durP1;ratioP1;P2;durP2;ratioP2
72856;SDS011;62742;52.136;4.500;2022-10-19T00:03:42;19.17;;;7.32;;
72856;SDS011;62742;52.136;4.500;2022-10-19T00:06:12;18.88;;;6.28;;
72856;SDS011;62742;52.136;4.500;2022-10-19T00:08:43;15.65;;;5.97;;
72856;SDS011;62742;52.136;4.500;2022-10-19T00:11:10;18.38;;;6.35;;
72856;SDS011;62742;52.136;4.500;2022-10-19T00:13:38;13.07;;;5.53;;
72856;SDS011;62742;52.136;4.500;2022-10-19T00:16:06;15.63;;;6.68;;
72856;SDS011;62742;52.136;4.500;2022-10-19T00:18:36;13.50;;;5.53;;
72856;SDS011;62742;52.136;4.500;2022-10-19T00:21:04;8.10;;;3.80;;
72856;SDS011;62742;52.136;4.500;2022-10-19T00:23:33;9.25;;;4.53;;
72856;SDS011;62742;52.136;4.500;2022-10-19T00:26:00;7.80;;;4.10;;
72856;SDS011;62742;52.136;4.500;2022-10-19T00:28:27;15.25;;;5.80;;
72856;SDS011;62742;52.136;4.500;2022-10-19T00:30:54;17.80;;;7.28;;
72856;SDS011;62742;52.136;4.500;2022-10-19T00:33:21;15.05;;;6.07;;
72856;SDS011;62742;52.136;4.500;2022-10-19T00:35:49;23.23;;;7.85;;
72856;SDS011;62742;52.136;4.500;2022-10-19T00:38:18;14.40;;;6.28;;
72856;SDS011;62742;52.136;4.500;2022-10-19T00:40:47;17.33;;;7.00;;
72856;SDS011;62742;52.136;4.500;2022-10-19T00:43:15;10.93;;;3.35;;
72856;SDS011;62742;52.136;4.500;2022-10-19T00:45:48;11.63;;;5.18;;
72856;SDS011;62742;52.136;4.500;2022-10-19T00:48:20;15.52;;;6.55;;
72856;SDS011;62742;52.136;4.500;2022-10-19T00:50:54;15.88;;;5.55;;
72856;SDS011;62742;52.136;4.500;2022-10-19T00:53:25;13.07;;;6.30;;
72856;SDS011;62742;52.136;4.500;2022-10-19T00:55:55;10.18;;;4.22;;
72856;SDS011;62742;52.136;4.500;2022-10-19T00:58:27;10.45;;;4.75;;
72856;SDS011;62742;52.136;4.500;2022-10-19T01:00:55;8.25;;;4.10;;
72856;SDS011;62742;52.136;4.500;2022-10-19T01:03:23;15.38;;;4.65;;
72856;SDS011;62742;52.136;4.500;2022-10-19T01:05:50;15.05;;;5.68;;
72856;SDS011;62742;52.136;4.500;2022-10-19T01:08:17;16.23;;;5.80;;
72856;SDS011;62742;52.136;4.500;2022-10-19T01:10:59;19.67;;;6.97;;
72856;SDS011;62742;52.136;4.500;2022-10-19T01:31:53;14.38;;;4.88;;
72856;SDS011;62742;52.136;4.500;2022-10-19T01:34:24;9.35;;;4.13;;
72856;SDS011;62742;52.136;4.500;2022-10-19T01:39:51;9.10;;;3.95;;
72856;SDS011;62742;52.136;4.500;2022-10-19T01:45:20;10.68;;;4.25;;
72856;SDS011;62742;52.136;4.500;2022-10-19T01:48:27;10.93;;;4.13;;
72856;SDS011;62742;52.136;4.500;2022-10-19T01:51:00;11.45;;;4.13;;
72856;SDS011;62742;52.136;4.500;2022-10-19T01:53:38;8.85;;;4.28;;
72856;SDS011;62742;52.136;4.500;2022-10-19T01:56:11;8.97;;;4.10;;
72856;SDS011;62742;52.136;4.500;2022-10-19T01:58:43;10.00;;;5.05;;
72856;SDS011;62742;52.136;4.500;2022-10-19T02:01:12;9.88;;;3.70;;
72856;SDS011;62742;52.136;4.500;2022-10-19T02:03:44;9.23;;;4.00;;
72856;SDS011;62742;52.136;4.500;2022-10-19T02:06:11;11.57;;;4.80;;
72856;SDS011;62742;52.136;4.500;2022-10-19T02:08:42;14.23;;;5.80;;
72856;SDS011;62742;52.136;4.500;2022-10-19T02:11:14;20.75;;;6.68;;
72856;SDS011;62742;52.136;4.500;2022-10-19T02:13:42;13.02;;;5.03;;
72856;SDS011;62742;52.136;4.500;2022-10-19T02:16:15;20.52;;;7.03;;
72856;SDS011;62742;52.136;4.500;2022-10-19T02:18:51;9.18;;;3.80;;
72856;SDS011;62742;52.136;4.500;2022-10-19T02:21:20;10.15;;;4.60;;
72856;SDS011;62742;52.136;4.500;2022-10-19T02:23:47;10.15;;;4.07;;
72856;SDS011;62742;52.136;4.500;2022-10-19T02:26:13;9.85;;;4.05;;
72856;SDS011;62742;52.136;4.500;2022-10-19T02:28:40;9.50;;;4.13;;
72856;SDS011;62742;52.136;4.500;2022-10-19T02:31:07;10.57;;;4.03;;
72856;SDS011;62742;52.136;4.500;2022-10-19T02:33:34;10.70;;;4.15;;
72856;SDS011;62742;52.136;4.500;2022-10-19T02:36:02;9.43;;;4.57;;
72856;SDS011;62742;52.136;4.500;2022-10-19T02:38:28;10.55;;;3.97;;
72856;SDS011;62742;52.136;4.500;2022-10-19T02:43:47;15.05;;;6.95;;
72856;SDS011;62742;52.136;4.500;2022-10-19T02:46:22;13.80;;;5.65;;
72856;SDS011;62742;52.136;4.500;2022-10-19T02:49:07;12.02;;;5.88;;
72856;SDS011;62742;52.136;4.500;2022-10-19T02:51:37;17.50;;;8.13;;
72856;SDS011;62742;52.136;4.500;2022-10-19T02:54:25;17.17;;;7.07;;
72856;SDS011;62742;52.136;4.500;2022-10-19T02:56:53;12.57;;;5.18;;
72856;SDS011;62742;52.136;4.500;2022-10-19T02:59:21;18.33;;;8.18;;
72856;SDS011;62742;52.136;4.500;2022-10-19T03:01:49;17.55;;;8.30;;
72856;SDS011;62742;52.136;4.500;2022-10-19T03:04:17;12.85;;;5.75;;
72856;SDS011;62742;52.136;4.500;2022-10-19T03:06:44;6.72;;;3.65;;
72856;SDS011;62742;52.136;4.500;2022-10-19T03:09:11;19.27;;;7.95;;
72856;SDS011;62742;52.136;4.500;2022-10-19T03:14:03;14.75;;;6.95;;
72856;SDS011;62742;52.136;4.500;2022-10-19T03:16:30;16.45;;;7.35;;
72856;SDS011;62742;52.136;4.500;2022-10-19T03:21:22;13.77;;;6.10;;
72856;SDS011;62742;52.136;4.500;2022-10-19T03:23:49;17.23;;;7.22;;
72856;SDS011;62742;52.136;4.500;2022-10-19T03:28:42;10.35;;;4.40;;
72856;SDS011;62742;52.136;4.500;2022-10-19T03:31:09;11.32;;;4.60;;
72856;SDS011;62742;52.136;4.500;2022-10-19T03:33:36;17.52;;;7.78;;
72856;SDS011;62742;52.136;4.500;2022-10-19T03:36:15;19.67;;;7.55;;
72856;SDS011;62742;52.136;4.500;2022-10-19T03:38:50;27.85;;;10.93;;
72856;SDS011;62742;52.136;4.500;2022-10-19T03:41:19;17.80;;;7.75;;
72856;SDS011;62742;52.136;4.500;2022-10-19T03:43:48;26.33;;;10.82;;
72856;SDS011;62742;52.136;4.500;2022-10-19T03:46:15;23.30;;;9.40;;
72856;SDS011;62742;52.136;4.500;2022-10-19T03:48:43;32.65;;;13.65;;
72856;SDS011;62742;52.136;4.500;2022-10-19T03:51:11;32.17;;;12.80;;
72856;SDS011;62742;52.136;4.500;2022-10-19T03:53:40;39.90;;;15.85;;
72856;SDS011;62742;52.136;4.500;2022-10-19T03:56:10;40.40;;;18.02;;
72856;SDS011;62742;52.136;4.500;2022-10-19T03:58:41;58.65;;;22.25;;
72856;SDS011;62742;52.136;4.500;2022-10-19T04:01:11;65.68;;;21.58;;
72856;SDS011;62742;52.136;4.500;2022-10-19T04:03:44;65.22;;;21.50;;
72856;SDS011;62742;52.136;4.500;2022-10-19T04:06:14;57.53;;;21.23;;
72856;SDS011;62742;52.136;4.500;2022-10-19T04:08:43;47.97;;;17.63;;
72856;SDS011;62742;52.136;4.500;2022-10-19T04:11:14;30.95;;;14.88;;
72856;SDS011;62742;52.136;4.500;2022-10-19T04:13:43;36.47;;;15.60;;
72856;SDS011;62742;52.136;4.500;2022-10-19T04:16:15;44.85;;;17.60;;
72856;SDS011;62742;52.136;4.500;2022-10-19T04:18:42;50.13;;;17.77;;
72856;SDS011;62742;52.136;4.500;2022-10-19T04:21:18;33.60;;;14.65;;
72856;SDS011;62742;52.136;4.500;2022-10-19T04:23:51;45.03;;;17.17;;
72856;SDS011;62742;52.136;4.500;2022-10-19T04:26:23;36.25;;;14.55;;
72856;SDS011;62742;52.136;4.500;2022-10-19T04:28:49;51.00;;;20.45;;
72856;SDS011;62742;52.136;4.500;2022-10-19T04:31:16;42.40;;;18.92;;
72856;SDS011;62742;52.136;4.500;2022-10-19T04:33:42;64.72;;;22.88;;
72856;SDS011;62742;52.136;4.500;2022-10-19T04:36:09;54.47;;;20.13;;
72856;SDS011;62742;52.136;4.500;2022-10-19T04:38:37;45.97;;;19.92;;
72856;SDS011;62742;52.136;4.500;2022-10-19T04:41:05;54.10;;;22.48;;
72856;SDS011;62742;52.136;4.500;2022-10-19T04:43:35;47.45;;;21.08;;
72856;SDS011;62742;52.136;4.500;2022-10-19T04:46:03;45.60;;;19.55;;
72856;SDS011;62742;52.136;4.500;2022-10-19T04:48:36;27.92;;;14.20;;
72856;SDS011;62742;52.136;4.500;2022-10-19T04:51:04;30.90;;;15.68;;
72856;SDS011;62742;52.136;4.500;2022-10-19T04:53:32;39.65;;;17.42;;
72856;SDS011;62742;52.136;4.500;2022-10-19T04:56:03;24.27;;;12.45;;
72856;SDS011;62742;52.136;4.500;2022-10-19T04:58:32;31.70;;;14.27;;
72856;SDS011;62742;52.136;4.500;2022-10-19T05:01:05;31.58;;;14.40;;
72856;SDS011;62742;52.136;4.500;2022-10-19T05:03:44;24.98;;;12.82;;
72856;SDS011;62742;52.136;4.500;2022-10-19T05:06:12;47.08;;;20.10;;
72856;SDS011;62742;52.136;4.500;2022-10-19T05:08:40;28.42;;;13.05;;
72856;SDS011;62742;52.136;4.500;2022-10-19T05:11:09;19.10;;;10.55;;
72856;SDS011;62742;52.136;4.500;2022-10-19T05:13:40;17.83;;;10.02;;
72856;SDS011;62742;52.136;4.500;2022-10-19T05:16:10;13.25;;;7.55;;
72856;SDS011;62742;52.136;4.500;2022-10-19T05:18:39;17.23;;;9.38;;
72856;SDS011;62742;52.136;4.500;2022-10-19T05:21:07;31.35;;;14.07;;
72856;SDS011;62742;52.136;4.500;2022-10-19T05:23:36;23.95;;;12.13;;
72856;SDS011;62742;52.136;4.500;2022-10-19T05:26:05;15.25;;;8.18;;
72856;SDS011;62742;52.136;4.500;2022-10-19T05:28:34;17.33;;;8.63;;
72856;SDS011;62742;52.136;4.500;2022-10-19T05:33:38;12.43;;;6.57;;
72856;SDS011;62742;52.136;4.500;2022-10-19T05:36:19;13.65;;;6.88;;
72856;SDS011;62742;52.136;4.500;2022-10-19T05:38:51;11.30;;;6.45;;
72856;SDS011;62742;52.136;4.500;2022-10-19T05:41:20;11.00;;;5.63;;
72856;SDS011;62742;52.136;4.500;2022-10-19T05:43:52;26.33;;;10.27;;
72856;SDS011;62742;52.136;4.500;2022-10-19T05:46:22;14.20;;;7.00;;
72856;SDS011;62742;52.136;4.500;2022-10-19T05:48:51;16.00;;;8.73;;
72856;SDS011;62742;52.136;4.500;2022-10-19T05:51:18;15.88;;;7.90;;
72856;SDS011;62742;52.136;4.500;2022-10-19T05:53:47;14.38;;;7.63;;
72856;SDS011;62742;52.136;4.500;2022-10-19T05:56:18;13.10;;;7.75;;
72856;SDS011;62742;52.136;4.500;2022-10-19T05:58:48;22.33;;;9.85;;
72856;SDS011;62742;52.136;4.500;2022-10-19T06:01:16;15.27;;;7.38;;
72856;SDS011;62742;52.136;4.500;2022-10-19T06:03:45;11.95;;;5.47;;
72856;SDS011;62742;52.136;4.500;2022-10-19T06:06:15;10.15;;;5.75;;
72856;SDS011;62742;52.136;4.500;2022-10-19T06:08:42;11.65;;;6.35;;
72856;SDS011;62742;52.136;4.500;2022-10-19T06:11:12;12.73;;;6.45;;
72856;SDS011;62742;52.136;4.500;2022-10-19T06:13:42;12.52;;;5.88;;
72856;SDS011;62742;52.136;4.500;2022-10-19T06:16:12;15.30;;;7.20;;
72856;SDS011;62742;52.136;4.500;2022-10-19T06:18:40;12.88;;;7.18;;
72856;SDS011;62742;52.136;4.500;2022-10-19T06:21:09;18.08;;;7.15;;
72856;SDS011;62742;52.136;4.500;2022-10-19T06:23:39;21.80;;;9.57;;
72856;SDS011;62742;52.136;4.500;2022-10-19T06:26:08;18.65;;;8.50;;
72856;SDS011;62742;52.136;4.500;2022-10-19T06:28:38;23.90;;;10.98;;
72856;SDS011;62742;52.136;4.500;2022-10-19T06:31:07;20.02;;;9.65;;
72856;SDS011;62742;52.136;4.500;2022-10-19T06:33:35;25.23;;;13.13;;
72856;SDS011;62742;52.136;4.500;2022-10-19T06:36:08;23.50;;;12.77;;
72856;SDS011;62742;52.136;4.500;2022-10-19T06:38:45;30.88;;;14.88;;
72856;SDS011;62742;52.136;4.500;2022-10-19T06:41:13;27.88;;;13.98;;
72856;SDS011;62742;52.136;4.500;2022-10-19T06:43:41;31.25;;;14.30;;
72856;SDS011;62742;52.136;4.500;2022-10-19T06:46:12;32.65;;;16.08;;
72856;SDS011;62742;52.136;4.500;2022-10-19T06:48:54;23.27;;;12.95;;
72856;SDS011;62742;52.136;4.500;2022-10-19T06:51:27;26.80;;;13.38;;
72856;SDS011;62742;52.136;4.500;2022-10-19T06:53:56;28.88;;;13.68;;
72856;SDS011;62742;52.136;4.500;2022-10-19T06:56:23;26.67;;;12.65;;
72856;SDS011;62742;52.136;4.500;2022-10-19T06:58:51;26.67;;;12.80;;
72856;SDS011;62742;52.136;4.500;2022-10-19T07:01:18;26.40;;;13.68;;
72856;SDS011;62742;52.136;4.500;2022-10-19T07:03:45;30.25;;;12.93;;
72856;SDS011;62742;52.136;4.500;2022-10-19T07:06:12;24.58;;;13.48;;
72856;SDS011;62742;52.136;4.500;2022-10-19T07:08:39;25.63;;;12.57;;
72856;SDS011;62742;52.136;4.500;2022-10-19T07:11:15;20.60;;;11.50;;
72856;SDS011;62742;52.136;4.500;2022-10-19T07:13:45;22.92;;;11.30;;
72856;SDS011;62742;52.136;4.500;2022-10-19T07:16:12;25.05;;;11.20;;
72856;SDS011;62742;52.136;4.500;2022-10-19T07:18:42;19.25;;;9.80;;
72856;SDS011;62742;52.136;4.500;2022-10-19T07:21:09;22.15;;;10.82;;
72856;SDS011;62742;52.136;4.500;2022-10-19T07:23:40;19.67;;;10.02;;
72856;SDS011;62742;52.136;4.500;2022-10-19T07:26:12;18.45;;;9.27;;
72856;SDS011;62742;52.136;4.500;2022-10-19T07:28:51;19.10;;;9.93;;
72856;SDS011;62742;52.136;4.500;2022-10-19T07:31:21;22.27;;;10.00;;
72856;SDS011;62742;52.136;4.500;2022-10-19T07:33:53;19.63;;;9.52;;
72856;SDS011;62742;52.136;4.500;2022-10-19T07:36:23;17.65;;;9.38;;
72856;SDS011;62742;52.136;4.500;2022-10-19T07:38:50;24.13;;;10.18;;
72856;SDS011;62742;52.136;4.500;2022-10-19T07:41:18;20.20;;;9.07;;
72856;SDS011;62742;52.136;4.500;2022-10-19T07:43:48;15.77;;;8.57;;
72856;SDS011;62742;52.136;4.500;2022-10-19T07:46:17;16.27;;;8.43;;
72856;SDS011;62742;52.136;4.500;2022-10-19T07:48:48;19.90;;;10.07;;
72856;SDS011;62742;52.136;4.500;2022-10-19T07:51:16;20.50;;;9.07;;
72856;SDS011;62742;52.136;4.500;2022-10-19T07:53:45;17.27;;;9.55;;
72856;SDS011;62742;52.136;4.500;2022-10-19T07:56:16;20.08;;;9.50;;
72856;SDS011;62742;52.136;4.500;2022-10-19T07:58:52;19.73;;;9.30;;
72856;SDS011;62742;52.136;4.500;2022-10-19T08:01:22;19.55;;;9.15;;
72856;SDS011;62742;52.136;4.500;2022-10-19T08:03:52;19.70;;;9.35;;
72856;SDS011;62742;52.136;4.500;2022-10-19T08:06:21;22.17;;;9.20;;
72856;SDS011;62742;52.136;4.500;2022-10-19T08:08:49;18.63;;;8.10;;
72856;SDS011;62742;52.136;4.500;2022-10-19T08:11:19;14.52;;;8.60;;
72856;SDS011;62742;52.136;4.500;2022-10-19T08:13:54;20.23;;;7.55;;
72856;SDS011;62742;52.136;4.500;2022-10-19T08:18:55;20.20;;;7.70;;
72856;SDS011;62742;52.136;4.500;2022-10-19T08:21:25;14.10;;;6.75;;
72856;SDS011;62742;52.136;4.500;2022-10-19T08:23:54;15.40;;;7.38;;
72856;SDS011;62742;52.136;4.500;2022-10-19T08:26:21;13.93;;;6.32;;
72856;SDS011;62742;52.136;4.500;2022-10-19T08:28:47;21.38;;;6.90;;
72856;SDS011;62742;52.136;4.500;2022-10-19T08:31:15;11.18;;;5.57;;
72856;SDS011;62742;52.136;4.500;2022-10-19T08:33:45;12.93;;;5.30;;
72856;SDS011;62742;52.136;4.500;2022-10-19T08:36:15;12.73;;;5.47;;
72856;SDS011;62742;52.136;4.500;2022-10-19T08:38:44;11.93;;;5.40;;
72856;SDS011;62742;52.136;4.500;2022-10-19T08:49:43;11.50;;;4.70;;
72856;SDS011;62742;52.136;4.500;2022-10-19T08:54:56;13.45;;;4.30;;
72856;SDS011;62742;52.136;4.500;2022-10-19T09:01:01;9.02;;;3.80;;
72856;SDS011;62742;52.136;4.500;2022-10-19T09:04:25;10.85;;;4.10;;
72856;SDS011;62742;52.136;4.500;2022-10-19T09:12:34;9.27;;;3.22;;
72856;SDS011;62742;52.136;4.500;2022-10-19T09:15:24;7.88;;;2.90;;
72856;SDS011;62742;52.136;4.500;2022-10-19T09:18:23;10.50;;;3.42;;
72856;SDS011;62742;52.136;4.500;2022-10-19T09:20:57;6.25;;;2.90;;
72856;SDS011;62742;52.136;4.500;2022-10-19T09:23:37;9.45;;;2.75;;
72856;SDS011;62742;52.136;4.500;2022-10-19T09:26:32;9.25;;;3.13;;
72856;SDS011;62742;52.136;4.500;2022-10-19T09:29:20;11.38;;;2.78;;
72856;SDS011;62742;52.136;4.500;2022-10-19T09:32:05;7.78;;;2.40;;
72856;SDS011;62742;52.136;4.500;2022-10-19T09:34:50;12.52;;;2.83;;
72856;SDS011;62742;52.136;4.500;2022-10-19T09:37:22;8.02;;;2.08;;
72856;SDS011;62742;52.136;4.500;2022-10-19T09:39:50;8.25;;;2.13;;
72856;SDS011;62742;52.136;4.500;2022-10-19T09:42:25;8.63;;;2.10;;
72856;SDS011;62742;52.136;4.500;2022-10-19T09:45:08;7.35;;;2.00;;
72856;SDS011;62742;52.136;4.500;2022-10-19T09:47:45;7.05;;;2.08;;
72856;SDS011;62742;52.136;4.500;2022-10-19T09:50:20;7.78;;;2.17;;
72856;SDS011;62742;52.136;4.500;2022-10-19T09:52:52;5.13;;;1.50;;
72856;SDS011;62742;52.136;4.500;2022-10-19T10:03:25;7.97;;;2.20;;
72856;SDS011;62742;52.136;4.500;2022-10-19T10:06:02;12.43;;;2.35;;
72856;SDS011;62742;52.136;4.500;2022-10-19T10:08:34;8.38;;;2.10;;
72856;SDS011;62742;52.136;4.500;2022-10-19T10:11:11;9.15;;;2.25;;
72856;SDS011;62742;52.136;4.500;2022-10-19T10:13:50;10.07;;;2.53;;
72856;SDS011;62742;52.136;4.500;2022-10-19T10:16:21;7.35;;;2.20;;
72856;SDS011;62742;52.136;4.500;2022-10-19T10:18:55;7.53;;;2.03;;
72856;SDS011;62742;52.136;4.500;2022-10-19T10:21:47;6.60;;;1.92;;
72856;SDS011;62742;52.136;4.500;2022-10-19T10:24:18;5.55;;;1.90;;
72856;SDS011;62742;52.136;4.500;2022-10-19T10:26:53;6.43;;;2.17;;
72856;SDS011;62742;52.136;4.500;2022-10-19T10:29:34;8.80;;;2.58;;
72856;SDS011;62742;52.136;4.500;2022-10-19T10:32:22;6.80;;;2.15;;
72856;SDS011;62742;52.136;4.500;2022-10-19T10:37:39;14.63;;;3.05;;
72856;SDS011;62742;52.136;4.500;2022-10-19T10:40:21;7.93;;;2.38;;
72856;SDS011;62742;52.136;4.500;2022-10-19T10:42:54;10.32;;;2.85;;
72856;SDS011;62742;52.136;4.500;2022-10-19T10:45:47;9.23;;;2.30;;
72856;SDS011;62742;52.136;4.500;2022-10-19T10:51:01;7.90;;;2.17;;
72856;SDS011;62742;52.136;4.500;2022-10-19T10:53:39;7.63;;;1.88;;
72856;SDS011;62742;52.136;4.500;2022-10-19T10:56:21;9.75;;;2.22;;
72856;SDS011;62742;52.136;4.500;2022-10-19T11:02:01;7.03;;;1.77;;
72856;SDS011;62742;52.136;4.500;2022-10-19T11:04:45;7.72;;;2.10;;
72856;SDS011;62742;52.136;4.500;2022-10-19T11:07:23;5.72;;;1.85;;
72856;SDS011;62742;52.136;4.500;2022-10-19T11:09:56;5.75;;;1.83;;
72856;SDS011;62742;52.136;4.500;2022-10-19T11:12:31;9.18;;;1.90;;
72856;SDS011;62742;52.136;4.500;2022-10-19T11:17:50;6.80;;;2.03;;
72856;SDS011;62742;52.136;4.500;2022-10-19T11:21:11;6.97;;;1.70;;
72856;SDS011;62742;52.136;4.500;2022-10-19T11:32:39;4.80;;;1.88;;
72856;SDS011;62742;52.136;4.500;2022-10-19T11:38:15;5.80;;;2.45;;
72856;SDS011;62742;52.136;4.500;2022-10-19T11:40:51;7.00;;;2.05;;
72856;SDS011;62742;52.136;4.500;2022-10-19T11:43:49;9.60;;;2.60;;
72856;SDS011;62742;52.136;4.500;2022-10-19T11:50:14;6.97;;;2.50;;
72856;SDS011;62742;52.136;4.500;2022-10-19T11:53:28;5.00;;;2.08;;
72856;SDS011;62742;52.136;4.500;2022-10-19T11:56:37;10.13;;;2.67;;
72856;SDS011;62742;52.136;4.500;2022-10-19T12:04:55;7.30;;;2.00;;
72856;SDS011;62742;52.136;4.500;2022-10-19T12:12:57;6.13;;;2.08;;
72856;SDS011;62742;52.136;4.500;2022-10-19T12:18:03;4.57;;;1.55;;
72856;SDS011;62742;52.136;4.500;2022-10-19T12:20:40;9.02;;;1.92;;
72856;SDS011;62742;52.136;4.500;2022-10-19T12:25:46;6.45;;;1.60;;
72856;SDS011;62742;52.136;4.500;2022-10-19T12:28:20;5.78;;;1.60;;
72856;SDS011;62742;52.136;4.500;2022-10-19T12:30:54;6.13;;;2.05;;
72856;SDS011;62742;52.136;4.500;2022-10-19T12:33:26;11.25;;;2.13;;
72856;SDS011;62742;52.136;4.500;2022-10-19T12:39:07;10.85;;;1.67;;
72856;SDS011;62742;52.136;4.500;2022-10-19T13:04:24;6.88;;;1.92;;
72856;SDS011;62742;52.136;4.500;2022-10-19T13:09:25;6.20;;;1.50;;
72856;SDS011;62742;52.136;4.500;2022-10-19T13:14:50;7.72;;;1.65;;
72856;SDS011;62742;52.136;4.500;2022-10-19T13:22:44;6.03;;;1.48;;
72856;SDS011;62742;52.136;4.500;2022-10-19T13:27:46;8.07;;;1.58;;
72856;SDS011;62742;52.136;4.500;2022-10-19T13:38:28;5.63;;;1.65;;
72856;SDS011;62742;52.136;4.500;2022-10-19T13:41:08;4.88;;;1.70;;
72856;SDS011;62742;52.136;4.500;2022-10-19T13:52:05;6.85;;;2.05;;
72856;SDS011;62742;52.136;4.500;2022-10-19T14:07:15;6.97;;;1.70;;
72856;SDS011;62742;52.136;4.500;2022-10-19T14:12:46;10.48;;;2.45;;
72856;SDS011;62742;52.136;4.500;2022-10-19T14:17:56;9.90;;;2.45;;
72856;SDS011;62742;52.136;4.500;2022-10-19T14:20:25;8.63;;;2.67;;
72856;SDS011;62742;52.136;4.500;2022-10-19T14:25:56;10.70;;;3.40;;
72856;SDS011;62742;52.136;4.500;2022-10-19T14:28:42;5.53;;;2.50;;
72856;SDS011;62742;52.136;4.500;2022-10-19T14:31:09;5.40;;;2.40;;
72856;SDS011;62742;52.136;4.500;2022-10-19T14:33:45;9.32;;;2.80;;
72856;SDS011;62742;52.136;4.500;2022-10-19T14:36:18;7.63;;;2.50;;
72856;SDS011;62742;52.136;4.500;2022-10-19T14:38:47;6.63;;;2.28;;
72856;SDS011;62742;52.136;4.500;2022-10-19T14:41:27;8.82;;;2.80;;
72856;SDS011;62742;52.136;4.500;2022-10-19T14:44:01;7.95;;;2.30;;
72856;SDS011;62742;52.136;4.500;2022-10-19T14:46:59;10.27;;;2.78;;
72856;SDS011;62742;52.136;4.500;2022-10-19T14:49:27;7.75;;;2.70;;
72856;SDS011;62742;52.136;4.500;2022-10-19T14:51:54;5.93;;;2.30;;
72856;SDS011;62742;52.136;4.500;2022-10-19T14:54:29;7.85;;;2.65;;
72856;SDS011;62742;52.136;4.500;2022-10-19T15:00:06;8.85;;;1.83;;
72856;SDS011;62742;52.136;4.500;2022-10-19T15:02:44;6.32;;;2.15;;
72856;SDS011;62742;52.136;4.500;2022-10-19T15:05:26;10.35;;;2.53;;
72856;SDS011;62742;52.136;4.500;2022-10-19T15:08:04;9.05;;;2.20;;
72856;SDS011;62742;52.136;4.500;2022-10-19T15:10:44;10.70;;;2.15;;
72856;SDS011;62742;52.136;4.500;2022-10-19T15:13:26;5.30;;;1.88;;
72856;SDS011;62742;52.136;4.500;2022-10-19T15:15:59;6.00;;;2.25;;
72856;SDS011;62742;52.136;4.500;2022-10-19T15:18:32;5.75;;;1.80;;
72856;SDS011;62742;52.136;4.500;2022-10-19T15:21:16;8.50;;;2.00;;
72856;SDS011;62742;52.136;4.500;2022-10-19T15:23:46;6.05;;;2.10;;
72856;SDS011;62742;52.136;4.500;2022-10-19T15:28:52;7.13;;;1.92;;
72856;SDS011;62742;52.136;4.500;2022-10-19T15:31:32;6.50;;;2.00;;
72856;SDS011;62742;52.136;4.500;2022-10-19T15:34:00;8.88;;;1.92;;
72856;SDS011;62742;52.136;4.500;2022-10-19T15:36:29;6.53;;;2.10;;
72856;SDS011;62742;52.136;4.500;2022-10-19T15:39:04;8.82;;;1.83;;
72856;SDS011;62742;52.136;4.500;2022-10-19T15:41:34;9.25;;;2.55;;
72856;SDS011;62742;52.136;4.500;2022-10-19T15:44:04;9.25;;;2.00;;
72856;SDS011;62742;52.136;4.500;2022-10-19T15:52:16;9.00;;;2.50;;
72856;SDS011;62742;52.136;4.500;2022-10-19T15:54:47;7.63;;;2.60;;
72856;SDS011;62742;52.136;4.500;2022-10-19T15:57:35;11.40;;;2.70;;
72856;SDS011;62742;52.136;4.500;2022-10-19T16:02:42;8.55;;;3.25;;
72856;SDS011;62742;52.136;4.500;2022-10-19T16:05:08;7.25;;;3.20;;
72856;SDS011;62742;52.136;4.500;2022-10-19T16:07:36;8.82;;;3.10;;
72856;SDS011;62742;52.136;4.500;2022-10-19T16:10:05;7.25;;;2.53;;
72856;SDS011;62742;52.136;4.500;2022-10-19T16:12:39;9.30;;;3.05;;
72856;SDS011;62742;52.136;4.500;2022-10-19T16:15:06;9.02;;;2.75;;
72856;SDS011;62742;52.136;4.500;2022-10-19T16:17:37;8.15;;;2.92;;
72856;SDS011;62742;52.136;4.500;2022-10-19T16:20:05;9.07;;;2.80;;
72856;SDS011;62742;52.136;4.500;2022-10-19T16:22:32;7.82;;;2.63;;
72856;SDS011;62742;52.136;4.500;2022-10-19T16:24:58;7.43;;;2.85;;
72856;SDS011;62742;52.136;4.500;2022-10-19T16:27:24;6.80;;;2.60;;
72856;SDS011;62742;52.136;4.500;2022-10-19T16:29:51;10.32;;;2.60;;
72856;SDS011;62742;52.136;4.500;2022-10-19T16:32:17;8.20;;;2.47;;
72856;SDS011;62742;52.136;4.500;2022-10-19T16:34:44;7.28;;;2.30;;
72856;SDS011;62742;52.136;4.500;2022-10-19T16:37:11;10.05;;;2.60;;
72856;SDS011;62742;52.136;4.500;2022-10-19T16:39:38;6.60;;;2.70;;
72856;SDS011;62742;52.136;4.500;2022-10-19T16:42:04;6.45;;;2.35;;
72856;SDS011;62742;52.136;4.500;2022-10-19T16:44:31;9.38;;;2.60;;
72856;SDS011;62742;52.136;4.500;2022-10-19T16:46:58;4.53;;;2.17;;
72856;SDS011;62742;52.136;4.500;2022-10-19T16:49:25;9.95;;;3.08;;
72856;SDS011;62742;52.136;4.500;2022-10-19T16:51:51;7.63;;;2.40;;
72856;SDS011;62742;52.136;4.500;2022-10-19T16:54:18;8.57;;;2.30;;
72856;SDS011;62742;52.136;4.500;2022-10-19T16:56:45;6.22;;;2.10;;
72856;SDS011;62742;52.136;4.500;2022-10-19T16:59:13;8.85;;;2.83;;
72856;SDS011;62742;52.136;4.500;2022-10-19T17:01:43;8.10;;;2.60;;
72856;SDS011;62742;52.136;4.500;2022-10-19T17:04:11;6.70;;;2.20;;
72856;SDS011;62742;52.136;4.500;2022-10-19T17:06:39;6.35;;;2.08;;
72856;SDS011;62742;52.136;4.500;2022-10-19T17:09:06;7.50;;;2.30;;
72856;SDS011;62742;52.136;4.500;2022-10-19T17:11:34;6.47;;;2.00;;
72856;SDS011;62742;52.136;4.500;2022-10-19T17:14:06;9.02;;;2.78;;
72856;SDS011;62742;52.136;4.500;2022-10-19T17:16:37;7.00;;;1.90;;
72856;SDS011;62742;52.136;4.500;2022-10-19T17:19:04;9.23;;;2.45;;
72856;SDS011;62742;52.136;4.500;2022-10-19T17:21:34;9.65;;;2.20;;
72856;SDS011;62742;52.136;4.500;2022-10-19T17:24:04;7.18;;;1.90;;
72856;SDS011;62742;52.136;4.500;2022-10-19T17:26:38;7.10;;;2.30;;
72856;SDS011;62742;52.136;4.500;2022-10-19T17:29:10;6.82;;;2.10;;
72856;SDS011;62742;52.136;4.500;2022-10-19T17:31:38;8.52;;;2.47;;
72856;SDS011;62742;52.136;4.500;2022-10-19T17:34:06;5.70;;;2.15;;
72856;SDS011;62742;52.136;4.500;2022-10-19T17:36:37;6.38;;;2.60;;
72856;SDS011;62742;52.136;4.500;2022-10-19T17:39:13;5.38;;;2.35;;
72856;SDS011;62742;52.136;4.500;2022-10-19T17:41:44;10.90;;;2.40;;
72856;SDS011;62742;52.136;4.500;2022-10-19T17:44:12;5.88;;;2.50;;
72856;SDS011;62742;52.136;4.500;2022-10-19T17:46:40;10.85;;;2.80;;
72856;SDS011;62742;52.136;4.500;2022-10-19T17:49:07;8.45;;;2.63;;
72856;SDS011;62742;52.136;4.500;2022-10-19T17:51:35;9.27;;;2.83;;
72856;SDS011;62742;52.136;4.500;2022-10-19T17:54:04;10.05;;;2.72;;
72856;SDS011;62742;52.136;4.500;2022-10-19T17:56:36;8.57;;;3.00;;
72856;SDS011;62742;52.136;4.500;2022-10-19T17:59:03;9.27;;;3.13;;
72856;SDS011;62742;52.136;4.500;2022-10-19T18:01:33;9.68;;;3.35;;
72856;SDS011;62742;52.136;4.500;2022-10-19T18:04:01;10.63;;;3.33;;
72856;SDS011;62742;52.136;4.500;2022-10-19T18:06:29;13.98;;;3.50;;
72856;SDS011;62742;52.136;4.500;2022-10-19T18:08:59;8.93;;;3.42;;
72856;SDS011;62742;52.136;4.500;2022-10-19T18:11:31;9.95;;;3.65;;
72856;SDS011;62742;52.136;4.500;2022-10-19T18:14:02;7.38;;;3.50;;
72856;SDS011;62742;52.136;4.500;2022-10-19T18:16:34;9.60;;;3.80;;
72856;SDS011;62742;52.136;4.500;2022-10-19T18:19:08;6.72;;;3.47;;
72856;SDS011;62742;52.136;4.500;2022-10-19T18:21:37;9.80;;;3.30;;
72856;SDS011;62742;52.136;4.500;2022-10-19T18:24:07;9.30;;;3.90;;
72856;SDS011;62742;52.136;4.500;2022-10-19T18:26:41;10.23;;;4.53;;
72856;SDS011;62742;52.136;4.500;2022-10-19T18:29:13;9.55;;;4.05;;
72856;SDS011;62742;52.136;4.500;2022-10-19T18:31:46;10.75;;;4.40;;